Time;durP1;ratioP1;P1;durP2;ratioP2;P2;SDS_P1;SDS_P2;PMS_P1;PMS_P2;Temp;Humidity;BMP_temperature;BMP_pressure;BME280_temperature;BME280_humidity;BME280_pressure;Samples;Min_cycle;Max_cycle;Signal;HPM_P1;HPM_P2
2022/04/12 00:00:40;;;;;;;15.25;11.40;;;;;;;8.52;86.71;101252.75;5110038;28;20055;-26
2022/04/12 00:03:09;;;;;;;16.80;11.57;;;;;;;8.49;86.97;101238.56;5110527;28;20519;-28
2022/04/12 00:05:40;;;;;;;14.02;10.63;;;;;;;8.48;86.94;101237.72;5109909;28;20391;-28
2022/04/12 00:08:09;;;;;;;14.50;10.52;;;;;;;8.46;86.94;101231.59;5110679;28;20358;-28
2022/04/12 00:10:36;;;;;;;17.85;11.35;;;;;;;8.45;87.05;101241.06;5109120;28;20134;-27
2022/04/12 00:13:05;;;;;;;15.10;10.38;;;;;;;8.45;87.13;101220.75;5109697;28;20492;-24
2022/04/12 00:15:33;;;;;;;17.25;11.00;;;;;;;8.44;86.82;101221.84;5110326;28;20454;-27
2022/04/12 00:20:48;;;;;;;14.80;11.15;;;;;;;8.40;86.93;101223.50;5113810;28;20480;-29
2022/04/12 00:23:16;;;;;;;15.45;10.85;;;;;;;8.38;87.09;101223.81;5114920;28;20571;-26
2022/04/12 00:25:44;;;;;;;14.18;10.13;;;;;;;8.35;87.45;101216.03;5114236;28;20045;-29
2022/04/12 00:28:13;;;;;;;16.15;10.95;;;;;;;8.37;86.96;101219.38;5113836;28;20045;-26
2022/04/12 00:30:41;;;;;;;16.15;10.95;;;;;;;8.35;86.94;101202.13;5113140;28;20130;-30
2022/04/12 00:33:10;;;;;;;16.52;11.40;;;;;;;8.34;87.15;101200.44;5114481;28;20040;-27
2022/04/12 00:35:38;;;;;;;14.45;10.98;;;;;;;8.34;87.46;101199.63;5113455;28;20571;-32
2022/04/12 00:38:17;;;;;;;15.70;11.05;;;;;;;8.33;87.52;101203.50;5114236;28;20043;-30
2022/04/12 00:40:46;;;;;;;16.55;10.90;;;;;;;8.30;87.51;101194.56;5113853;28;20058;-27
2022/04/12 00:43:17;;;;;;;15.07;10.98;;;;;;;8.30;87.47;101196.50;5114518;28;20491;-27
2022/04/12 00:45:44;;;;;;;15.07;10.93;;;;;;;8.28;88.29;101207.06;5114003;28;20040;-27
2022/04/12 00:48:14;;;;;;;14.88;10.63;;;;;;;8.30;87.83;101199.28;5113287;28;20388;-31
2022/04/12 00:50:43;;;;;;;14.20;10.50;;;;;;;8.27;87.92;101206.25;5103087;28;20051;-27
2022/04/12 00:53:10;;;;;;;16.65;10.57;;;;;;;8.27;87.80;101211.81;5114029;28;20469;-29
2022/04/12 00:55:38;;;;;;;12.57;9.13;;;;;;;8.26;88.39;101220.41;5112869;28;20553;-27
2022/04/12 00:58:08;;;;;;;16.00;10.63;;;;;;;8.28;88.29;101212.63;5113870;28;20043;-29
2022/04/12 01:00:37;;;;;;;14.63;10.80;;;;;;;8.25;88.75;101216.78;5110991;28;20086;-33
2022/04/12 01:03:05;;;;;;;16.55;11.55;;;;;;;8.26;88.48;101223.19;5113080;28;20416;-33
2022/04/12 01:05:36;;;;;;;16.02;11.32;;;;;;;8.27;88.66;101224.88;5112289;28;20557;-25
2022/04/12 01:08:04;;;;;;;16.33;11.13;;;;;;;8.28;88.37;101227.38;5113974;28;20046;-29
2022/04/12 01:10:33;;;;;;;12.15;9.45;;;;;;;8.29;88.59;101231.81;5112654;28;20058;-27
2022/04/12 01:13:02;;;;;;;13.60;9.30;;;;;;;8.31;88.13;101226.00;5113628;28;20058;-27
2022/04/12 01:15:30;;;;;;;16.52;10.98;;;;;;;8.32;87.88;101224.03;5113415;28;20052;-28
2022/04/12 01:17:58;;;;;;;16.48;11.32;;;;;;;8.29;88.45;101217.91;5112601;28;20036;-27
2022/04/12 01:20:29;;;;;;;14.13;10.30;;;;;;;8.30;88.08;101219.59;5112219;28;20201;-30
2022/04/12 01:23:07;;;;;;;12.90;9.48;;;;;;;8.31;87.96;101217.66;5112739;28;20039;-26
2022/04/12 01:25:37;;;;;;;16.38;10.82;;;;;;;8.29;88.44;101219.88;5112055;28;20113;-25
2022/04/12 01:28:05;;;;;;;16.02;11.35;;;;;;;8.27;88.93;101210.97;5113236;28;20082;-27
2022/04/12 01:30:32;;;;;;;17.95;11.40;;;;;;;8.27;89.06;101210.97;5111707;28;20047;-28
2022/04/12 01:33:00;;;;;;;14.88;10.77;;;;;;;8.25;89.06;101214.00;5113409;28;20048;-27
2022/04/12 01:35:28;;;;;;;14.25;9.98;;;;;;;8.23;89.81;101205.13;5113205;28;20071;-30
2022/04/12 01:37:56;;;;;;;16.83;10.98;;;;;;;8.21;90.03;101200.94;5112410;28;20043;-26
2022/04/12 01:40:23;;;;;;;14.70;10.25;;;;;;;8.22;89.87;101210.94;5113055;28;20066;-29
2022/04/12 01:42:53;;;;;;;13.43;9.40;;;;;;;8.18;90.86;101209.84;5112800;28;20130;-26
2022/04/12 01:45:21;;;;;;;14.05;10.48;;;;;;;8.19;91.07;101219.88;5112518;28;20069;-28
2022/04/12 01:47:49;;;;;;;14.90;10.32;;;;;;;8.16;91.06;101212.91;5112929;28;20046;-30
2022/04/12 01:50:17;;;;;;;14.07;10.90;;;;;;;8.14;91.97;101208.72;5112953;28;20047;-28
2022/04/12 01:52:45;;;;;;;15.35;10.60;;;;;;;8.14;91.60;101205.94;5101501;28;20490;-28
2022/04/12 01:55:12;;;;;;;14.15;10.07;;;;;;;8.13;91.49;101207.88;5112754;28;20047;-27
2022/04/12 01:57:40;;;;;;;14.82;10.13;;;;;;;8.12;91.89;101209.00;5112491;28;20047;-29
2022/04/12 02:00:11;;;;;;;14.35;9.75;;;;;;;8.12;92.11;101208.16;5112134;28;20049;-29
2022/04/12 02:02:38;;;;;;;13.20;9.52;;;;;;;8.10;92.17;101210.38;5109719;28;20051;-27
2022/04/12 02:05:07;;;;;;;14.85;10.20;;;;;;;8.10;92.51;101210.38;5112083;28;20047;-32
2022/04/12 02:07:35;;;;;;;14.43;10.05;;;;;;;8.07;92.34;101206.19;5110808;28;20047;-33
2022/04/12 02:10:04;;;;;;;15.73;10.20;;;;;;;8.05;92.75;101208.41;5112599;28;20423;-31
2022/04/12 02:12:31;;;;;;;15.27;10.80;;;;;;;8.04;92.90;101195.63;5111668;28;20044;-28
2022/04/12 02:14:59;;;;;;;13.95;10.20;;;;;;;8.03;92.80;101193.94;5112470;28;20050;-30
2022/04/12 02:17:29;;;;;;;15.52;10.63;;;;;;;8.00;93.06;101183.38;5112352;28;20036;-33
2022/04/12 02:19:56;;;;;;;13.82;10.48;;;;;;;7.95;93.63;101175.88;5110134;28;20044;-27
2022/04/12 02:22:24;;;;;;;15.25;10.85;;;;;;;7.93;93.66;101171.72;5112212;28;20122;-29
2022/04/12 02:24:52;;;;;;;12.60;10.18;;;;;;;7.88;94.33;101158.63;5112271;28;20035;-29
2022/04/12 02:27:20;;;;;;;16.35;11.10;;;;;;;7.85;94.83;101152.78;5111583;28;20082;-31
2022/04/12 02:29:47;;;;;;;13.98;10.63;;;;;;;7.81;95.04;101149.72;5111987;28;20051;-27
2022/04/12 02:32:15;;;;;;;14.10;10.75;;;;;;;7.78;95.26;101152.22;5112023;28;20048;-27
2022/04/12 02:34:44;;;;;;;15.25;11.05;;;;;;;7.76;95.59;101151.66;5111213;28;20050;-30
2022/04/12 02:37:12;;;;;;;13.00;10.10;;;;;;;7.72;95.77;101154.16;5111625;28;20044;-29
2022/04/12 02:39:40;;;;;;;17.15;11.98;;;;;;;7.68;96.45;101141.91;5111712;28;20515;-26
2022/04/12 02:42:08;;;;;;;13.98;11.00;;;;;;;7.68;96.98;101141.91;5109895;28;20036;-32
2022/04/12 02:44:36;;;;;;;14.73;10.40;;;;;;;7.68;96.62;101144.69;5109963;27;20048;-29
2022/04/12 02:47:04;;;;;;;15.07;10.93;;;;;;;7.66;97.16;101144.13;5109921;28;20524;-26
2022/04/12 02:49:32;;;;;;;13.82;9.75;;;;;;;7.66;97.72;101132.19;5109323;28;20043;-29
2022/04/12 02:52:01;;;;;;;19.92;9.50;;;;;;;7.66;97.69;101140.50;5110235;28;20047;-33
2022/04/12 02:54:29;;;;;;;14.30;10.93;;;;;;;7.65;97.80;101148.00;5109915;28;20744;-28
2022/04/12 02:56:57;;;;;;;13.50;9.90;;;;;;;7.65;97.65;101148.00;5110862;28;20051;-28
2022/04/12 02:59:25;;;;;;;15.50;11.07;;;;;;;7.65;97.74;101147.16;5110890;28;20071;-31
2022/04/12 03:01:53;;;;;;;14.88;9.85;;;;;;;7.65;97.83;101145.22;5110900;28;20051;-27
2022/04/12 03:04:21;;;;;;;14.68;10.60;;;;;;;7.64;97.46;101143.56;5111099;28;20050;-30
2022/04/12 03:06:48;;;;;;;12.38;8.80;;;;;;;7.65;97.76;101141.63;5112085;28;20047;-29
2022/04/12 03:09:18;;;;;;;14.02;10.30;;;;;;;7.64;97.83;101143.56;5110164;28;20374;-28
2022/04/12 03:11:46;;;;;;;13.30;10.05;;;;;;;7.64;97.22;101135.22;5111003;28;20055;-29
2022/04/12 03:14:13;;;;;;;12.40;9.07;;;;;;;7.63;97.20;101124.38;5111722;28;20073;-28
2022/04/12 03:16:42;;;;;;;14.27;9.23;;;;;;;7.61;97.31;101116.31;5110204;28;20150;-30
2022/04/12 03:19:10;;;;;;;12.40;9.45;;;;;;;7.57;97.10;101116.06;5111510;28;20139;-29
2022/04/12 03:21:38;;;;;;;13.85;9.90;;;;;;;7.52;97.91;101120.75;5111236;28;20122;-28
2022/04/12 03:24:06;;;;;;;12.05;9.20;;;;;;;7.51;97.88;101116.31;5110304;28;20490;-29
2022/04/12 03:26:35;;;;;;;14.57;10.15;;;;;;;7.50;98.05;101111.84;5111081;28;20479;-28
2022/04/12 03:29:04;;;;;;;13.68;9.82;;;;;;;7.50;97.84;101104.38;5109485;28;20423;-29
2022/04/12 03:31:31;;;;;;;14.90;10.65;;;;;;;7.46;98.55;101103.25;5110483;28;20404;-28
2022/04/12 03:33:59;;;;;;;14.52;10.43;;;;;;;7.44;98.99;101097.13;5111064;28;20044;-25
2022/04/12 03:36:27;;;;;;;13.82;9.95;;;;;;;7.44;99.10;101099.91;5110188;28;20062;-26
2022/04/12 03:38:55;;;;;;;12.73;9.38;;;;;;;7.42;99.36;101087.38;5110821;28;20417;-26
2022/04/12 03:41:23;;;;;;;15.90;10.38;;;;;;;7.42;99.72;101087.38;5111038;28;20044;-26
2022/04/12 03:43:52;;;;;;;15.77;10.70;;;;;;;7.40;100.00;101082.09;5109941;28;20153;-34
2022/04/12 03:46:20;;;;;;;13.75;10.27;;;;;;;7.42;99.87;101084.63;5111053;28;20039;-29
2022/04/12 03:48:48;;;;;;;15.75;10.68;;;;;;;7.42;99.60;101087.38;5110701;28;20047;-30
2022/04/12 03:51:19;;;;;;;13.97;10.00;;;;;;;7.42;100.00;101087.38;5107329;28;20050;-25
2022/04/12 03:53:47;;;;;;;13.27;9.55;;;;;;;7.43;99.93;101092.66;5113260;28;20391;-31
2022/04/12 03:56:15;;;;;;;14.27;10.77;;;;;;;7.42;100.00;101098.50;5116212;28;20048;-30
2022/04/12 03:58:43;;;;;;;14.85;10.20;;;;;;;7.44;100.00;101096.28;5117218;27;20061;-27
2022/04/12 04:01:12;;;;;;;13.48;8.80;;;;;;;7.47;100.00;101101.28;5117545;28;20047;-27
2022/04/12 04:03:41;;;;;;;14.63;9.48;;;;;;;7.48;99.96;101101.03;5117346;28;20051;-27
2022/04/12 04:06:09;;;;;;;14.55;10.18;;;;;;;7.49;99.60;101099.91;5116641;27;20043;-26
2022/04/12 04:08:37;;;;;;;12.85;9.02;;;;;;;7.52;99.56;101099.38;5117499;28;20055;-30
2022/04/12 04:11:08;;;;;;;15.38;9.50;;;;;;;7.54;99.48;101107.44;5117635;27;20048;-29
2022/04/12 04:13:37;;;;;;;12.75;9.45;;;;;;;7.53;99.39;101105.75;5116424;28;20488;-30
2022/04/12 04:16:05;;;;;;;12.88;9.27;;;;;;;7.55;99.60;101098.00;5117586;27;20129;-30
2022/04/12 04:18:35;;;;;;;15.50;10.20;;;;;;;7.55;99.40;101103.56;5116795;28;20571;-31
2022/04/12 04:21:03;;;;;;;12.80;9.25;;;;;;;7.54;99.23;101102.72;5117247;28;20050;-33
2022/04/12 04:23:31;;;;;;;14.88;10.75;;;;;;;7.52;99.22;101101.31;5117170;27;20048;-29
2022/04/12 04:25:59;;;;;;;12.48;9.68;;;;;;;7.54;98.91;101094.38;5116344;27;20039;-28
2022/04/12 04:28:30;;;;;;;13.73;9.52;;;;;;;7.54;98.78;101086.06;5117248;27;20055;-27
2022/04/12 04:30:58;;;;;;;12.18;9.40;;;;;;;7.55;98.37;101071.06;5117159;27;20058;-28
2022/04/12 04:33:26;;;;;;;14.32;9.13;;;;;;;7.55;98.08;101070.22;5116378;27;20047;-29
2022/04/12 04:35:55;;;;;;;11.82;9.00;;;;;;;7.54;98.57;101063.00;5116917;28;20062;-32
2022/04/12 04:38:22;;;;;;;11.98;9.15;;;;;;;7.51;98.22;101064.38;5114946;27;20050;-26
2022/04/12 04:40:50;;;;;;;13.50;9.80;;;;;;;7.50;98.80;101068.28;5114980;27;20052;-29
2022/04/12 04:43:18;;;;;;;13.13;9.23;;;;;;;7.51;98.88;101074.66;5115929;27;20065;-27
2022/04/12 04:45:46;;;;;;;12.38;8.77;;;;;;;7.48;99.04;101075.19;5113752;28;20044;-27
2022/04/12 04:48:14;;;;;;;10.85;8.25;;;;;;;7.47;99.14;101085.47;5114543;27;20051;-24
2022/04/12 04:50:42;;;;;;;13.38;8.82;;;;;;;7.46;98.77;101083.81;5115928;27;20047;-28
2022/04/12 04:53:11;;;;;;;13.98;8.93;;;;;;;7.44;99.58;101086.00;5114515;28;20070;-25
2022/04/12 04:55:42;;;;;;;12.90;9.07;;;;;;;7.45;99.91;101093.22;5115023;27;20067;-26
2022/04/12 04:58:10;;;;;;;11.55;9.43;;;;;;;7.46;99.89;101100.47;5115513;27;20048;-29
2022/04/12 05:00:38;;;;;;;11.77;8.98;;;;;;;7.47;99.52;101091.03;5115787;27;20047;-24
2022/04/12 05:03:06;;;;;;;13.02;8.52;;;;;;;7.51;99.55;101094.09;5115418;27;20404;-33
2022/04/12 05:05:34;;;;;;;12.20;8.15;;;;;;;7.53;99.38;101097.44;5113477;27;20050;-33
2022/04/12 05:08:03;;;;;;;12.38;8.68;;;;;;;7.55;98.87;101086.91;5111841;28;20054;-28
2022/04/12 05:10:33;;;;;;;12.95;8.43;;;;;;;7.59;98.65;101082.47;5112433;28;20392;-30
2022/04/12 05:13:02;;;;;;;13.25;8.75;;;;;;;7.61;98.15;101099.66;5112300;28;20060;-26
2022/04/12 05:15:31;;;;;;;12.98;8.77;;;;;;;7.63;98.09;101096.63;5111548;28;20492;-30
2022/04/12 05:18:04;;;;;;;10.60;7.45;;;;;;;7.64;97.68;101106.63;5105026;28;20039;-33
2022/04/12 05:20:32;;;;;;;9.88;7.60;;;;;;;7.63;97.91;101094.66;5112449;28;20051;-27
2022/04/12 05:23:00;;;;;;;11.40;7.78;;;;;;;7.66;97.62;101093.28;5111448;28;20051;-27
2022/04/12 05:25:28;;;;;;;11.35;7.60;;;;;;;7.68;96.85;101091.91;5111895;28;20534;-27
2022/04/12 05:27:57;;;;;;;9.63;7.18;;;;;;;7.70;96.54;101089.69;5112309;28;20039;-28
2022/04/12 05:30:25;;;;;;;12.52;7.82;;;;;;;7.70;96.46;101098.03;5111507;28;20042;-29
2022/04/12 05:32:53;;;;;;;10.50;7.50;;;;;;;7.74;96.29;101099.16;5112252;28;20122;-26
2022/04/12 05:35:21;;;;;;;9.30;6.60;;;;;;;7.76;95.97;101105.28;5112176;28;20039;-27
2022/04/12 05:37:52;;;;;;;11.48;7.65;;;;;;;7.75;95.36;101094.44;5108476;28;20047;-38
2022/04/12 05:40:20;;;;;;;10.02;7.75;;;;;;;7.80;95.39;101114.72;5100259;28;20073;-31
2022/04/12 05:42:51;;;;;;;11.25;7.40;;;;;;;7.82;94.68;101106.94;5112252;28;20126;-29
2022/04/12 05:45:20;;;;;;;13.07;6.70;;;;;;;7.84;95.00;101123.34;5108685;28;20126;-30
2022/04/12 05:47:49;;;;;;;12.48;7.38;;;;;;;7.85;94.84;101117.50;5110430;27;20135;-31
2022/04/12 05:50:18;;;;;;;11.95;7.70;;;;;;;7.86;94.83;101121.94;5109796;28;20504;-27
2022/04/12 05:52:47;;;;;;;8.65;6.88;;;;;;;7.89;94.21;101118.63;5111552;28;20131;-29
2022/04/12 05:55:16;;;;;;;10.73;7.70;;;;;;;7.90;94.48;101111.97;5111357;28;20051;-33
2022/04/12 05:57:51;;;;;;;10.98;7.22;;;;;;;7.93;94.48;101119.75;5111087;28;20043;-34
2022/04/12 06:00:21;;;;;;;8.52;6.47;;;;;;;7.93;94.20;101128.09;5111117;28;20050;-26
2022/04/12 06:02:50;;;;;;;8.73;6.15;;;;;;;7.94;93.96;101120.59;5111743;28;20454;-30
2022/04/12 06:05:20;;;;;;;9.85;7.00;;;;;;;7.95;94.01;101106.41;5110584;28;20061;-29
2022/04/12 06:07:49;;;;;;;9.70;6.75;;;;;;;7.99;93.68;101105.88;5111501;28;20067;-31
2022/04/12 06:10:18;;;;;;;9.88;7.70;;;;;;;8.02;93.57;101108.06;5111513;28;20043;-27
2022/04/12 06:12:47;;;;;;;9.70;7.15;;;;;;;8.04;93.39;101101.13;5110486;27;20066;-28
2022/04/12 06:15:15;;;;;;;12.07;7.50;;;;;;;8.08;92.88;101095.84;5111214;28;20053;-27
2022/04/12 06:17:44;;;;;;;10.25;7.38;;;;;;;8.12;92.91;101096.97;5110884;28;20047;-29
2022/04/12 06:20:13;;;;;;;10.52;7.20;;;;;;;8.18;92.67;101093.09;5110413;27;20047;-28
2022/04/12 06:22:41;;;;;;;9.77;7.13;;;;;;;8.21;91.86;101095.31;5110986;28;20062;-27
2022/04/12 06:25:11;;;;;;;9.88;6.75;;;;;;;8.29;91.83;101098.38;5110562;28;20043;-30
2022/04/12 06:27:41;;;;;;;11.27;6.97;;;;;;;8.35;91.17;101090.06;5111084;28;20109;-33
2022/04/12 06:30:11;;;;;;;10.15;7.05;;;;;;;8.40;90.96;101099.22;5111104;28;20077;-32
2022/04/12 06:32:40;;;;;;;11.43;6.97;;;;;;;8.49;90.21;101091.16;5111214;28;20047;-30
2022/04/12 06:35:10;;;;;;;10.77;6.82;;;;;;;8.56;89.97;101098.13;5112109;28;20036;-27
2022/04/12 06:37:40;;;;;;;10.43;7.15;;;;;;;8.63;89.50;101100.59;5111307;28;20085;-35
2022/04/12 06:40:10;;;;;;;9.07;6.25;;;;;;;8.74;89.25;101093.91;5109430;28;20090;-26
2022/04/12 06:42:38;;;;;;;11.25;7.40;;;;;;;8.84;88.36;101088.31;5110553;28;20047;-30
2022/04/12 06:45:08;;;;;;;12.45;7.18;;;;;;;8.91;86.77;101079.66;5110118;28;20035;-28
2022/04/12 06:47:36;;;;;;;8.60;6.53;;;;;;;9.04;87.03;101073.50;5111125;28;20036;-26
2022/04/12 06:50:05;;;;;;;9.70;7.13;;;;;;;9.17;86.40;101072.06;5111682;28;20047;-27
2022/04/12 06:52:34;;;;;;;9.13;6.70;;;;;;;9.32;85.48;101074.78;5111341;28;20055;-29
2022/04/12 06:55:03;;;;;;;9.27;6.53;;;;;;;9.45;84.82;101078.88;5111034;28;20054;-30
2022/04/12 06:57:32;;;;;;;9.32;6.78;;;;;;;9.59;84.15;101083.53;5111135;28;20054;-29
2022/04/12 07:00:02;;;;;;;9.77;6.32;;;;;;;9.85;82.97;101081.44;5110237;28;20516;-28
2022/04/12 07:02:30;;;;;;;10.52;6.82;;;;;;;10.22;81.68;101085.66;5108551;28;20251;-30
2022/04/12 07:04:57;;;;;;;8.75;7.18;;;;;;;10.55;79.32;101076.44;5111384;28;20097;-30
2022/04/12 07:07:25;;;;;;;10.00;6.55;;;;;;;10.89;77.76;101078.31;5110224;28;20061;-28
2022/04/12 07:09:55;;;;;;;10.32;7.10;;;;;;;11.15;76.30;101068.53;5111451;28;20410;-32
2022/04/12 07:12:24;;;;;;;10.35;6.80;;;;;;;11.43;75.22;101069.53;5111391;28;20389;-31
2022/04/12 07:14:52;;;;;;;10.18;7.00;;;;;;;11.69;73.07;101081.22;5110878;28;20058;-36
2022/04/12 07:17:22;;;;;;;9.85;6.43;;;;;;;12.01;72.72;101072.09;5111759;28;20047;-30
2022/04/12 07:19:49;;;;;;;9.10;6.30;;;;;;;12.32;70.12;101064.88;5111181;28;20477;-30
2022/04/12 07:22:17;;;;;;;9.00;6.65;;;;;;;12.56;68.02;101064.75;5110434;28;20119;-33
2022/04/12 07:24:45;;;;;;;10.23;6.40;;;;;;;12.83;68.15;101061.13;5110559;28;20054;-32
2022/04/12 07:27:14;;;;;;;10.55;6.35;;;;;;;13.03;66.94;101066.34;5111428;28;20036;-29
2022/04/12 07:29:42;;;;;;;7.93;6.05;;;;;;;13.20;66.10;101060.13;5110054;28;20047;-33
2022/04/12 07:32:10;;;;;;;8.18;6.03;;;;;;;13.38;65.35;101064.00;5110931;28;20043;-33
2022/04/12 07:34:38;;;;;;;11.50;6.28;;;;;;;13.55;64.62;101068.94;5110876;28;20051;-27
2022/04/12 07:37:05;;;;;;;9.57;6.35;;;;;;;13.74;63.45;101061.22;5110557;28;20448;-36
2022/04/12 07:39:33;;;;;;;8.13;6.38;;;;;;;13.76;62.16;101068.19;5111188;28;20054;-34
2022/04/12 07:42:01;;;;;;;10.35;6.47;;;;;;;13.73;60.28;101067.97;5111527;27;20154;-29
2022/04/12 07:44:36;;;;;;;7.93;6.07;;;;;;;13.78;61.58;101068.69;5110623;28;20126;-28
2022/04/12 07:47:05;;;;;;;10.30;6.65;;;;;;;14.02;61.76;101071.19;5111186;28;20061;-32
2022/04/12 07:49:32;;;;;;;8.38;5.75;;;;;;;14.35;60.44;101068.16;5110657;28;20043;-29
2022/04/12 07:52:00;;;;;;;8.10;5.88;;;;;;;14.49;58.80;101063.31;5110752;28;20453;-28
2022/04/12 07:54:28;;;;;;;8.48;5.43;;;;;;;14.75;58.60;101063.50;5111182;28;20052;-31
2022/04/12 07:56:56;;;;;;;8.35;5.93;;;;;;;15.02;57.81;101060.47;5110272;28;20051;-30
2022/04/12 07:59:23;;;;;;;9.70;5.50;;;;;;;15.19;56.69;101059.69;5111028;28;20050;-31
2022/04/12 08:01:52;;;;;;;14.38;5.85;;;;;;;15.27;56.04;101056.09;5110978;28;20047;-33
2022/04/12 08:04:20;;;;;;;9.23;5.78;;;;;;;15.38;56.18;101057.47;5109976;28;20536;-28
2022/04/12 08:06:48;;;;;;;9.05;5.53;;;;;;;15.52;55.37;101049.72;5110618;28;20507;-30
2022/04/12 08:09:16;;;;;;;8.57;5.32;;;;;;;15.71;54.34;101057.88;5110968;28;20467;-28
2022/04/12 08:11:43;;;;;;;9.35;5.65;;;;;;;15.69;52.64;101046.13;5110251;28;20040;-28
2022/04/12 08:14:11;;;;;;;6.68;5.43;;;;;;;15.72;53.10;101039.03;5111302;28;20052;-31
2022/04/12 08:16:39;;;;;;;6.90;5.30;;;;;;;15.93;53.76;101045.66;5110791;28;20138;-33
2022/04/12 08:19:08;;;;;;;7.63;5.53;;;;;;;16.19;52.65;101038.00;5110207;28;20039;-31
2022/04/12 08:21:38;;;;;;;7.75;5.43;;;;;;;16.03;51.98;101039.69;5110929;28;20043;-30
2022/04/12 08:24:07;;;;;;;7.72;5.70;;;;;;;16.06;51.44;101044.66;5109789;28;20104;-32
2022/04/12 08:26:35;;;;;;;7.68;5.72;;;;;;;15.99;48.81;101035.03;5109969;28;20138;-31
2022/04/12 08:29:03;;;;;;;9.20;6.00;;;;;;;16.02;49.54;101038.03;5110669;28;20381;-32
2022/04/12 08:31:30;;;;;;;7.47;5.25;;;;;;;16.19;50.97;101035.19;5110623;28;20058;-34
2022/04/12 08:33:58;;;;;;;7.78;5.75;;;;;;;16.43;50.85;101034.66;5110227;28;20169;-28
2022/04/12 08:36:27;;;;;;;8.43;5.82;;;;;;;16.65;49.38;101033.66;5110624;28;20052;-27
2022/04/12 08:38:55;;;;;;;7.55;5.20;;;;;;;16.52;48.39;101040.28;5109605;28;20416;-32
2022/04/12 08:41:24;;;;;;;8.25;6.07;;;;;;;16.19;47.80;101040.81;5112732;28;20497;-32
2022/04/12 08:43:55;;;;;;;7.45;6.00;;;;;;;16.22;49.58;101044.97;5114362;28;20047;-30
2022/04/12 08:46:26;;;;;;;8.68;5.97;;;;;;;16.36;50.38;101051.25;5113839;28;20097;-30
2022/04/12 08:48:56;;;;;;;8.50;5.25;;;;;;;16.42;50.83;101049.09;5114579;28;20066;-32
2022/04/12 08:51:28;;;;;;;8.27;5.95;;;;;;;16.42;51.11;101040.63;5114212;28;20085;-35
2022/04/12 08:53:57;;;;;;;7.15;5.60;;;;;;;16.64;50.30;101045.25;5113951;28;20286;-33
2022/04/12 08:56:26;;;;;;;7.50;5.88;;;;;;;16.51;46.81;101045.09;5114691;28;20061;-26
2022/04/12 08:58:54;;;;;;;9.63;5.88;;;;;;;16.44;48.43;101060.84;5114221;28;20052;-33
2022/04/12 09:01:41;;;;;;;8.30;5.53;;;;;;;16.43;46.41;101054.38;5113394;28;20504;-29
2022/04/12 09:04:09;;;;;;;8.65;5.63;;;;;;;16.42;47.43;101066.81;5114142;28;20043;-32
2022/04/12 09:06:48;;;;;;;8.85;6.13;;;;;;;16.41;45.19;101058.69;5113653;28;20403;-27
2022/04/12 09:09:18;;;;;;;8.20;5.30;;;;;;;16.34;47.42;101059.22;5113562;28;20352;-29
2022/04/12 09:11:57;;;;;;;9.40;5.68;;;;;;;16.41;47.34;101050.25;5114040;28;20040;-30
2022/04/12 09:14:25;;;;;;;8.05;5.60;;;;;;;16.20;47.97;101050.94;5113196;28;20052;-28
2022/04/12 09:16:53;;;;;;;7.72;5.40;;;;;;;16.36;47.84;101042.00;5113645;28;20048;-28
2022/04/12 09:19:43;;;;;;;8.65;5.40;;;;;;;16.63;46.33;101044.44;5113581;28;20077;-29
2022/04/12 09:22:16;;;;;;;7.60;5.55;;;;;;;16.68;47.30;101023.69;5112791;28;20044;-30
2022/04/12 09:24:49;;;;;;;8.52;5.47;;;;;;;16.71;47.35;101015.41;5112327;28;20058;-27
2022/04/12 09:27:18;;;;;;;7.97;5.50;;;;;;;16.99;47.01;101000.84;5113410;28;20044;-29
2022/04/12 09:29:49;;;;;;;7.82;6.32;;;;;;;17.17;46.82;101006.09;5111696;28;20051;-27
2022/04/12 09:32:20;;;;;;;7.35;5.97;;;;;;;17.16;46.83;101017.72;5113426;28;20060;-27
2022/04/12 09:34:48;;;;;;;7.33;5.20;;;;;;;17.23;47.22;101032.09;5113663;28;20073;-29
2022/04/12 09:37:22;;;;;;;8.77;5.90;;;;;;;17.42;46.95;101035.28;5112156;28;20488;-32
2022/04/12 09:39:55;;;;;;;8.25;6.10;;;;;;;17.63;46.54;101026.84;5113102;28;20068;-31
2022/04/12 09:42:47;;;;;;;6.88;5.50;;;;;;;17.83;45.32;101028.06;5112715;28;20066;-34
2022/04/12 09:45:18;;;;;;;7.78;5.85;;;;;;;17.74;45.10;101021.69;5113371;28;20381;-28
2022/04/12 09:47:48;;;;;;;7.78;5.90;;;;;;;17.66;46.09;101028.19;5113135;28;20408;-32
2022/04/12 09:50:36;;;;;;;8.50;5.50;;;;;;;17.61;46.59;101034.84;5111748;28;20054;-32
2022/04/12 09:53:37;;;;;;;8.82;5.95;;;;;;;17.66;45.15;101023.38;5111487;28;20106;-33
2022/04/12 09:56:14;;;;;;;7.10;5.88;;;;;;;17.66;46.26;101014.09;5112096;28;20100;-27
2022/04/12 09:58:44;;;;;;;8.82;5.68;;;;;;;17.68;46.75;101009.75;5113613;28;20051;-31
2022/04/12 10:01:13;;;;;;;8.40;6.13;;;;;;;17.76;46.11;101010.88;5113315;28;20079;-30
2022/04/12 10:03:45;;;;;;;8.43;6.07;;;;;;;17.83;46.12;101020.44;5111099;27;20096;-30
2022/04/12 10:06:15;;;;;;;8.77;5.90;;;;;;;17.72;46.26;101021.19;5112596;28;20051;-28
2022/04/12 10:08:44;;;;;;;8.02;5.50;;;;;;;17.68;46.47;101021.06;5112959;27;20047;-28
2022/04/12 10:11:14;;;;;;;8.57;6.47;;;;;;;17.73;46.58;101009.56;5111914;28;20059;-31
2022/04/12 10:13:42;;;;;;;8.07;5.88;;;;;;;17.81;46.76;101007.81;5112801;28;20051;-28
2022/04/12 10:16:11;;;;;;;8.35;6.25;;;;;;;18.09;46.39;101000.44;5112819;28;20116;-32
2022/04/12 10:18:39;;;;;;;8.32;6.13;;;;;;;18.14;45.78;101010.72;5112077;28;20112;-29
2022/04/12 10:21:07;;;;;;;8.35;6.07;;;;;;;18.31;45.95;101004.06;5112622;28;20043;-28
2022/04/12 10:23:36;;;;;;;10.48;6.38;;;;;;;18.40;45.40;101001.94;5112362;28;20523;-31
2022/04/12 10:26:07;;;;;;;8.90;6.65;;;;;;;18.22;45.62;101006.97;5110648;28;20044;-31
2022/04/12 10:28:35;;;;;;;10.55;7.05;;;;;;;17.82;46.32;101003.84;5111334;28;20054;-31
2022/04/12 10:31:22;;;;;;;8.48;6.20;;;;;;;17.78;45.42;100988.78;5111470;28;20055;-27
2022/04/12 10:34:10;;;;;;;9.63;6.05;;;;;;;17.86;46.99;100987.84;5111597;28;20101;-28
2022/04/12 10:37:08;;;;;;;8.85;6.40;;;;;;;17.89;46.21;100984.34;5112373;28;20048;-35
2022/04/12 10:40:03;;;;;;;7.70;6.15;;;;;;;17.87;47.08;100978.22;5111326;28;20058;-32
2022/04/12 10:42:33;;;;;;;10.15;6.07;;;;;;;17.71;47.35;100972.38;5111755;28;20512;-27
2022/04/12 10:45:03;;;;;;;9.95;7.00;;;;;;;17.56;46.84;100978.63;5111652;28;20039;-28
2022/04/12 10:47:33;;;;;;;9.27;6.45;;;;;;;17.45;47.82;100960.44;5111058;28;20048;-29
2022/04/12 10:50:02;;;;;;;8.25;6.15;;;;;;;17.42;47.84;100956.28;5111870;27;20047;-28
2022/04/12 10:52:34;;;;;;;8.43;6.43;;;;;;;17.39;47.85;100956.97;5111031;28;20043;-31
2022/04/12 10:55:04;;;;;;;8.40;6.32;;;;;;;17.31;47.96;100949.41;5111742;28;20087;-29
2022/04/12 10:57:33;;;;;;;8.27;6.25;;;;;;;17.34;48.13;100947.91;5111704;28;20050;-29
2022/04/12 11:00:12;;;;;;;10.30;6.82;;;;;;;17.33;46.93;100940.63;5111123;28;20050;-29
2022/04/12 11:02:43;;;;;;;7.97;5.93;;;;;;;17.36;48.11;100932.31;5108672;28;20170;-29
2022/04/12 11:05:53;;;;;;;9.35;6.70;;;;;;;17.56;47.69;100931.47;5111014;28;20047;-28
2022/04/12 11:08:47;;;;;;;9.88;6.65;;;;;;;17.64;47.40;100914.81;5110609;28;20039;-27
2022/04/12 11:11:19;;;;;;;6.00;4.82;;;;;;;17.63;48.00;100919.63;5111467;28;20048;-30
2022/04/12 11:13:50;;;;;;;8.15;6.78;;;;;;;17.67;47.97;100917.78;5110625;28;20044;-30
2022/04/12 11:16:19;;;;;;;9.13;6.65;;;;;;;17.71;48.41;100917.94;5111615;28;20126;-28
2022/04/12 11:18:49;;;;;;;10.05;7.35;;;;;;;17.76;49.46;100929.03;5111023;28;20456;-26
2022/04/12 11:21:18;;;;;;;8.50;6.95;;;;;;;17.74;48.61;100939.81;5108897;28;20051;-31
2022/04/12 11:23:48;;;;;;;8.40;6.38;;;;;;;17.67;47.78;100942.38;5110285;28;20043;-27
2022/04/12 11:26:36;;;;;;;10.30;6.80;;;;;;;17.64;47.49;100948.66;5110879;28;20054;-27
2022/04/12 11:29:09;;;;;;;9.43;6.47;;;;;;;17.69;47.48;100940.03;5110496;28;20047;-27
2022/04/12 11:31:40;;;;;;;8.52;6.43;;;;;;;17.71;46.87;100951.81;5110981;28;20051;-27
2022/04/12 11:34:09;;;;;;;9.70;6.78;;;;;;;17.63;47.12;100927.25;5111242;28;20545;-30
2022/04/12 11:36:39;;;;;;;10.90;7.30;;;;;;;17.55;47.81;100927.00;5110334;28;20047;-29